Time;durP1;ratioP1;P1;durP2;ratioP2;P2;SDS_P1;SDS_P2;PMS_P1;PMS_P2;Temp;Humidity;BMP_temperature;BMP_pressure;BME280_temperature;BME280_humidity;BME280_pressure;Samples;Min_cycle;Max_cycle;Signal;HPM_P1;HPM_P2
2022/07/06 00:01:47;;;;;;;20.08;12.70;;;;;;;19.54;100.00;94356.13;1626282;86;21455;-55
2022/07/06 00:04:15;;;;;;;16.45;12.07;;;;;;;19.55;100.00;94349.27;1625346;87;21090;-55
2022/07/06 00:06:44;;;;;;;15.55;13.65;;;;;;;19.52;100.00;94350.30;1619977;86;21471;-55
2022/07/06 00:09:12;;;;;;;15.20;12.00;;;;;;;19.49;100.00;94342.20;1640812;86;21217;-55
2022/07/06 00:11:42;;;;;;;13.72;12.07;;;;;;;19.47;100.00;94341.33;1628188;86;20976;-56
2022/07/06 00:14:11;;;;;;;13.48;12.03;;;;;;;19.47;100.00;94341.95;1611715;87;21067;-56
2022/07/06 00:16:40;;;;;;;18.73;13.45;;;;;;;19.48;100.00;94335.88;1599638;87;21008;-56
2022/07/06 00:19:09;;;;;;;21.10;13.25;;;;;;;19.47;100.00;94346.91;1615790;87;20998;-56
2022/07/06 00:21:38;;;;;;;16.23;11.97;;;;;;;19.46;100.00;94331.45;1612666;88;21980;-56
2022/07/06 00:24:07;;;;;;;14.63;12.07;;;;;;;19.45;100.00;94339.70;1609708;88;21189;-56
2022/07/06 00:26:36;;;;;;;12.98;11.68;;;;;;;19.44;100.00;94332.59;1611207;88;21085;-56
2022/07/06 00:29:05;;;;;;;17.40;13.18;;;;;;;19.40;100.00;94329.95;1607579;88;21040;-56
2022/07/06 00:31:35;;;;;;;17.17;11.65;;;;;;;19.32;100.00;94328.95;1587649;89;21048;-56
2022/07/06 00:34:03;;;;;;;13.83;12.00;;;;;;;19.15;100.00;94330.39;1612313;88;21096;-56
2022/07/06 00:36:32;;;;;;;14.33;11.55;;;;;;;19.02;100.00;94328.03;1656231;85;21585;-56
2022/07/06 00:39:01;;;;;;;15.25;11.45;;;;;;;18.94;100.00;94322.84;1647789;85;21211;-56
2022/07/06 00:41:29;;;;;;;22.42;13.58;;;;;;;18.89;100.00;94316.03;1654200;85;21109;-56
2022/07/06 00:43:58;;;;;;;20.72;14.28;;;;;;;18.92;100.00;94316.40;1671080;85;21083;-56
2022/07/06 00:46:32;;;;;;;19.92;14.65;;;;;;;18.98;100.00;94313.60;1659486;85;21240;-56
2022/07/06 00:49:00;;;;;;;15.90;13.45;;;;;;;19.02;100.00;94306.47;1666364;85;21446;-56
2022/07/06 00:51:32;;;;;;;21.10;13.55;;;;;;;19.06;100.00;94309.78;1647987;85;21199;-56
2022/07/06 00:54:03;;;;;;;27.40;14.58;;;;;;;19.08;100.00;94314.20;1664430;85;20991;-54
2022/07/06 00:56:32;;;;;;;17.85;13.40;;;;;;;19.07;100.00;94316.87;1670195;84;20983;-54
2022/07/06 00:59:01;;;;;;;23.92;14.28;;;;;;;19.05;100.00;94320.78;1650684;85;21112;-56
2022/07/06 01:01:30;;;;;;;18.00;14.93;;;;;;;19.02;100.00;94316.23;1661218;84;21731;-56
2022/07/06 01:03:59;;;;;;;18.77;14.05;;;;;;;19.08;100.00;94310.02;1663515;85;21586;-55
2022/07/06 01:06:28;;;;;;;25.35;16.93;;;;;;;19.15;100.00;94308.08;1661742;85;21015;-55
2022/07/06 01:08:57;;;;;;;20.25;16.42;;;;;;;19.19;100.00;94300.23;1672133;84;21011;-55
2022/07/06 01:11:26;;;;;;;20.85;15.70;;;;;;;19.26;100.00;94303.89;1676390;85;21359;-55
2022/07/06 01:13:54;;;;;;;20.30;14.03;;;;;;;19.34;100.00;94298.53;1656041;85;21098;-55
2022/07/06 01:16:22;;;;;;;18.55;13.72;;;;;;;19.41;100.00;94295.19;1638862;86;21081;-56
2022/07/06 01:18:52;;;;;;;24.63;15.88;;;;;;;19.44;100.00;94294.16;1653335;85;21077;-54
2022/07/06 01:21:20;;;;;;;25.08;17.10;;;;;;;19.42;100.00;94286.95;1659394;85;21019;-56
2022/07/06 01:23:49;;;;;;;17.40;13.75;;;;;;;19.43;100.00;94281.48;1659074;85;21065;-55
2022/07/06 01:26:19;;;;;;;18.32;14.75;;;;;;;19.46;100.00;94287.42;1663738;84;21502;-55
2022/07/06 01:28:49;;;;;;;20.97;14.35;;;;;;;19.48;100.00;94287.66;1667978;84;21428;-55
2022/07/06 01:31:20;;;;;;;23.40;15.65;;;;;;;19.51;100.00;94288.80;1660811;84;21043;-56
2022/07/06 01:33:49;;;;;;;20.35;16.27;;;;;;;19.52;100.00;94289.57;1664411;85;21043;-55
2022/07/06 01:36:18;;;;;;;20.30;15.35;;;;;;;19.49;100.00;94289.95;1664761;85;21217;-55
2022/07/06 01:38:53;;;;;;;18.05;14.00;;;;;;;19.50;100.00;94291.47;1659163;85;21510;-55
2022/07/06 01:41:21;;;;;;;18.98;15.13;;;;;;;19.47;100.00;94293.90;1661794;84;21002;-55
2022/07/06 01:43:49;;;;;;;20.68;15.32;;;;;;;19.48;100.00;94302.39;1651550;85;21112;-55
2022/07/06 01:46:19;;;;;;;19.10;15.32;;;;;;;19.44;100.00;94307.48;1675356;85;21524;-55
2022/07/06 01:48:48;;;;;;;16.95;13.48;;;;;;;19.46;100.00;94300.75;1675626;84;21280;-55
2022/07/06 01:51:16;;;;;;;16.95;13.60;;;;;;;19.50;100.00;94295.66;1674904;85;21167;-55
2022/07/06 01:53:46;;;;;;;16.23;13.28;;;;;;;19.51;100.00;94298.56;1672262;84;21652;-59
2022/07/06 01:56:15;;;;;;;19.55;14.28;;;;;;;19.50;100.00;94308.83;1651243;85;21085;-55
2022/07/06 01:58:45;;;;;;;21.30;14.43;;;;;;;19.47;100.00;94303.66;1663076;85;20972;-55
2022/07/06 02:01:18;;;;;;;20.30;13.35;;;;;;;19.45;100.00;94304.05;1677806;84;21263;-55
2022/07/06 02:03:46;;;;;;;16.45;11.73;;;;;;;19.39;100.00;94306.11;1669975;84;21113;-55
2022/07/06 02:06:15;;;;;;;15.38;12.63;;;;;;;19.34;100.00;94319.46;1662448;85;21506;-55
2022/07/06 02:08:44;;;;;;;18.10;14.28;;;;;;;19.29;100.00;94313.25;1664660;85;21087;-55
2022/07/06 02:11:12;;;;;;;17.48;13.95;;;;;;;19.24;100.00;94310.62;1659376;84;20965;-55
2022/07/06 02:13:43;;;;;;;19.20;13.78;;;;;;;19.26;100.00;94308.08;1616998;86;21592;-55
2022/07/06 02:16:11;;;;;;;15.40;12.60;;;;;;;19.28;100.00;94312.50;1601838;88;21153;-56
2022/07/06 02:18:39;;;;;;;14.15;12.60;;;;;;;19.37;100.00;94306.61;1616656;88;21062;-57
2022/07/06 02:21:08;;;;;;;15.38;12.58;;;;;;;19.43;100.00;94312.95;1611554;88;21535;-56
2022/07/06 02:23:36;;;;;;;15.68;13.15;;;;;;;19.49;100.00;94319.25;1608308;88;21431;-56
2022/07/06 02:26:04;;;;;;;17.15;13.93;;;;;;;19.46;100.00;94326.48;1604529;88;21119;-54
2022/07/06 02:28:34;;;;;;;18.17;14.25;;;;;;;19.39;99.53;94327.04;1604929;87;21208;-56
2022/07/06 02:31:03;;;;;;;17.37;13.90;;;;;;;19.29;99.72;94334.94;1609883;88;21251;-55
2022/07/06 02:33:31;;;;;;;17.75;14.68;;;;;;;19.24;100.00;94334.33;1602481;88;21072;-55
2022/07/06 02:35:59;;;;;;;14.68;12.88;;;;;;;19.21;100.00;94335.33;1643495;84;21200;-55
2022/07/06 02:38:27;;;;;;;15.78;12.33;;;;;;;19.17;100.00;94322.95;1621622;85;21940;-54
2022/07/06 02:40:55;;;;;;;17.35;12.93;;;;;;;19.11;100.00;94328.52;1664511;84;21110;-55
2022/07/06 02:43:23;;;;;;;15.03;12.47;;;;;;;19.10;100.00;94329.78;1675068;85;21015;-56
2022/07/06 02:45:51;;;;;;;15.80;12.85;;;;;;;19.09;100.00;94339.42;1665500;85;21019;-55
2022/07/06 02:48:21;;;;;;;16.87;12.90;;;;;;;19.07;100.00;94341.19;1672245;84;21042;-55
2022/07/06 02:50:50;;;;;;;20.52;12.85;;;;;;;19.02;100.00;94339.93;1665116;85;21774;-56
2022/07/06 02:53:19;;;;;;;15.50;12.82;;;;;;;18.96;100.00;94328.66;1653169;85;21034;-55
2022/07/06 02:55:48;;;;;;;15.40;12.13;;;;;;;18.96;100.00;94326.65;1660986;85;21189;-56
2022/07/06 02:58:16;;;;;;;14.00;12.47;;;;;;;18.98;100.00;94309.42;1660815;84;21063;-56
2022/07/06 03:00:45;;;;;;;18.12;13.13;;;;;;;18.94;100.00;94315.25;1658287;85;21442;-57
2022/07/06 03:03:15;;;;;;;15.55;11.75;;;;;;;18.96;100.00;94310.55;1656550;85;21329;-56
2022/07/06 03:05:46;;;;;;;15.15;12.20;;;;;;;19.03;100.00;94305.20;1667891;84;21458;-56
2022/07/06 03:08:13;;;;;;;13.30;11.90;;;;;;;19.08;100.00;94305.84;1668365;85;21515;-56
2022/07/06 03:10:42;;;;;;;13.08;11.50;;;;;;;19.11;100.00;94308.22;1634755;85;21519;-55
2022/07/06 03:13:11;;;;;;;15.23;12.07;;;;;;;19.13;100.00;94305.05;1646579;85;21083;-56
2022/07/06 03:15:40;;;;;;;17.27;12.00;;;;;;;19.14;100.00;94319.11;1660337;84;21119;-55
2022/07/06 03:18:08;;;;;;;14.60;11.53;;;;;;;19.15;99.70;94316.45;1659840;85;21015;-55
2022/07/06 03:20:37;;;;;;;14.50;11.00;;;;;;;19.17;99.69;94317.38;1654652;85;21067;-55
2022/07/06 03:23:07;;;;;;;14.38;12.88;;;;;;;19.19;99.43;94318.36;1675444;85;21082;-55
2022/07/06 03:25:36;;;;;;;14.95;12.00;;;;;;;19.18;99.31;94314.05;1666930;85;21039;-56
2022/07/06 03:28:05;;;;;;;13.40;11.48;;;;;;;19.17;99.30;94304.17;1652841;85;21931;-56
2022/07/06 03:30:34;;;;;;;14.13;11.15;;;;;;;19.15;99.14;94304.55;1631105;86;20970;-56
2022/07/06 03:33:02;;;;;;;13.90;11.55;;;;;;;19.16;99.87;94298.47;1620715;87;21002;-56
2022/07/06 03:35:31;;;;;;;14.15;12.55;;;;;;;19.25;100.00;94300.20;1607243;88;21523;-56
2022/07/06 03:37:59;;;;;;;15.23;12.40;;;;;;;19.31;99.99;94292.56;1595895;88;21595;-57
2022/07/06 03:40:29;;;;;;;17.75;11.80;;;;;;;19.30;99.41;94293.22;1619940;87;21292;-55
2022/07/06 03:42:57;;;;;;;15.68;11.65;;;;;;;19.28;99.19;94290.81;1610778;88;21083;-55
2022/07/06 03:45:26;;;;;;;13.43;11.35;;;;;;;19.27;99.33;94287.28;1614960;87;21079;-55
2022/07/06 03:47:54;;;;;;;17.92;12.82;;;;;;;19.30;99.79;94286.87;1617778;88;21045;-55
2022/07/06 03:50:22;;;;;;;17.62;13.93;;;;;;;19.34;99.76;94282.55;1618022;88;20980;-55
2022/07/06 03:52:51;;;;;;;16.10;11.75;;;;;;;19.34;100.00;94285.33;1567316;87;21082;-55
2022/07/06 03:55:19;;;;;;;12.35;11.08;;;;;;;19.43;100.00;94285.05;1623417;87;21559;-55
2022/07/06 03:57:50;;;;;;;15.32;11.03;;;;;;;19.51;99.40;94283.84;1625272;88;21030;-56
2022/07/06 04:00:19;;;;;;;18.35;12.55;;;;;;;19.54;99.05;94276.59;1676088;85;21546;-55
2022/07/06 04:02:50;;;;;;;16.95;12.43;;;;;;;19.58;99.12;94275.68;1675335;84;20976;-55
2022/07/06 04:05:21;;;;;;;13.05;10.68;;;;;;;19.67;98.93;94271.20;1669705;85;21160;-56
2022/07/06 04:07:49;;;;;;;16.62;10.88;;;;;;;19.70;97.71;94263.18;1665380;85;20993;-56
2022/07/06 04:10:19;;;;;;;11.57;10.10;;;;;;;19.74;97.20;94262.91;1668012;85;21062;-56
2022/07/06 04:12:46;;;;;;;14.78;10.75;;;;;;;19.78;96.93;94254.36;1668369;85;20999;-56
2022/07/06 04:15:15;;;;;;;12.03;10.25;;;;;;;19.84;96.44;94266.27;1670330;85;21145;-56
2022/07/06 04:17:53;;;;;;;12.88;10.32;;;;;;;19.90;95.87;94266.23;1673385;84;21147;-56
2022/07/06 04:20:24;;;;;;;9.78;8.75;;;;;;;19.98;95.09;94256.00;1662360;85;21436;-56
2022/07/06 04:22:53;;;;;;;11.83;10.45;;;;;;;20.11;94.94;94263.91;1663073;85;21554;-56
2022/07/06 04:25:21;;;;;;;14.35;11.00;;;;;;;20.22;93.99;94261.04;1667925;85;21144;-56
2022/07/06 04:27:49;;;;;;;11.18;10.08;;;;;;;20.29;93.32;94264.03;1662590;84;21074;-56
2022/07/06 04:30:17;;;;;;;12.20;9.95;;;;;;;20.29;92.82;94261.23;1653481;84;21133;-56
2022/07/06 04:32:45;;;;;;;11.38;9.35;;;;;;;20.25;92.57;94257.97;1665227;85;21574;-54
2022/07/06 04:35:14;;;;;;;12.50;10.30;;;;;;;20.27;93.05;94256.81;1671104;85;21023;-55
2022/07/06 04:37:45;;;;;;;13.60;10.82;;;;;;;20.31;93.24;94262.86;1668397;85;20993;-49
2022/07/06 04:40:14;;;;;;;12.73;10.43;;;;;;;20.34;93.40;94254.09;1671494;85;20959;-50
2022/07/06 04:42:42;;;;;;;13.18;9.33;;;;;;;20.28;93.45;94249.17;1664011;85;21294;-53
2022/07/06 04:45:11;;;;;;;10.23;9.20;;;;;;;20.29;93.41;94248.66;1664307;85;21074;-55
2022/07/06 04:47:41;;;;;;;12.13;10.63;;;;;;;20.32;93.16;94246.84;1661400;84;21086;-54
2022/07/06 04:50:09;;;;;;;10.68;9.63;;;;;;;20.36;93.18;94252.92;1664642;84;20994;-53
2022/07/06 04:52:38;;;;;;;14.20;10.82;;;;;;;20.44;92.91;94258.05;1666293;85;21054;-53
2022/07/06 04:55:08;;;;;;;14.73;10.05;;;;;;;20.45;92.50;94260.95;1668392;85;21285;-54
2022/07/06 04:57:36;;;;;;;15.38;10.00;;;;;;;20.45;91.89;94266.54;1641069;85;21571;-54
2022/07/06 05:00:06;;;;;;;17.57;10.58;;;;;;;20.43;91.91;94260.72;1670591;84;20978;-53
2022/07/06 05:02:35;;;;;;;20.60;15.10;;;;;;;20.43;92.64;94264.28;1667293;85;20979;-53
2022/07/06 05:05:04;;;;;;;13.80;10.68;;;;;;;20.48;93.01;94270.45;1658580;85;20975;-54
2022/07/06 05:07:39;;;;;;;14.40;9.83;;;;;;;20.51;92.29;94274.22;1672493;85;22212;-56
2022/07/06 05:10:08;;;;;;;12.58;10.48;;;;;;;20.50;91.97;94271.31;1674865;85;21113;-55
2022/07/06 05:12:37;;;;;;;15.55;11.40;;;;;;;20.53;91.40;94271.03;1674394;85;21063;-54
2022/07/06 05:15:08;;;;;;;15.13;10.20;;;;;;;20.60;91.24;94276.69;1665783;84;21212;-54
2022/07/06 05:17:36;;;;;;;12.53;10.18;;;;;;;20.66;90.81;94282.35;1655767;85;21583;-54
2022/07/06 05:20:07;;;;;;;13.83;10.15;;;;;;;20.69;90.84;94281.92;1668332;85;21603;-55
2022/07/06 05:22:38;;;;;;;12.18;9.55;;;;;;;20.76;91.06;94277.17;1675814;84;21570;-54
2022/07/06 05:25:07;;;;;;;14.23;10.68;;;;;;;20.80;91.13;94286.79;1669339;85;21078;-54
2022/07/06 05:27:35;;;;;;;11.38;10.15;;;;;;;20.83;91.16;94289.96;1656502;85;21038;-55
2022/07/06 05:30:05;;;;;;;12.65;10.35;;;;;;;20.86;91.09;94290.93;1660014;84;21039;-55
2022/07/06 05:32:33;;;;;;;14.58;9.38;;;;;;;20.89;90.83;94297.64;1624287;86;21290;-55
2022/07/06 05:35:02;;;;;;;10.48;8.95;;;;;;;20.95;89.83;94305.98;1665756;85;21094;-55
2022/07/06 05:37:31;;;;;;;14.90;9.58;;;;;;;21.01;89.66;94302.47;1649264;85;21115;-55
2022/07/06 05:40:00;;;;;;;17.48;10.45;;;;;;;21.06;89.63;94307.23;1648319;85;21138;-55
2022/07/06 05:42:29;;;;;;;13.78;10.48;;;;;;;21.09;89.48;94323.00;1694129;84;21044;-55
2022/07/06 05:44:58;;;;;;;14.87;10.68;;;;;;;21.12;88.53;94326.88;1672787;85;21158;-55
2022/07/06 05:50:12;;;;;;;16.17;11.88;;;;;;;21.12;87.59;94347.13;1656714;84;21071;-58
2022/07/06 05:52:43;;;;;;;22.50;11.93;;;;;;;21.14;87.90;94341.76;1660830;84;21023;-62
2022/07/06 05:55:11;;;;;;;12.70;10.63;;;;;;;21.12;87.71;94346.47;1658728;84;21071;-56
2022/07/06 05:57:40;;;;;;;12.07;9.63;;;;;;;21.13;87.35;94354.23;1621448;85;23368;-62
2022/07/06 06:00:08;;;;;;;17.30;9.35;;;;;;;21.14;86.74;94354.34;1652017;84;21124;-63
2022/07/06 06:02:41;;;;;;;14.07;10.70;;;;;;;21.10;86.83;94364.42;1655505;83;21249;-62
2022/07/06 06:05:11;;;;;;;18.57;11.18;;;;;;;21.09;86.92;94371.30;1657059;84;21013;-64
2022/07/06 06:07:40;;;;;;;15.68;11.28;;;;;;;21.06;87.25;94359.77;1655498;84;21695;-57
2022/07/06 06:10:11;;;;;;;15.58;12.75;;;;;;;21.06;87.74;94357.59;1652827;84;21103;-58
2022/07/06 06:12:41;;;;;;;16.48;10.80;;;;;;;21.15;87.80;94351.66;1655931;84;21503;-60
2022/07/06 06:15:10;;;;;;;20.12;13.40;;;;;;;21.27;87.59;94346.08;1655463;83;21477;-59
2022/07/06 06:17:41;;;;;;;12.68;8.80;;;;;;;21.36;87.48;94341.50;1646684;83;21019;-56
2022/07/06 06:20:10;;;;;;;9.58;8.58;;;;;;;21.48;85.43;94328.90;1652551;84;21896;-56
2022/07/06 06:22:57;;;;;;;11.88;8.90;;;;;;;21.61;83.45;94312.17;1654390;84;21945;-59
2022/07/06 06:25:36;;;;;;;20.50;10.10;;;;;;;21.70;83.13;94303.44;1661001;83;21013;-58
2022/07/06 06:28:06;;;;;;;16.48;8.10;;;;;;;21.81;83.02;94287.23;1656918;83;22574;-59
2022/07/06 06:30:35;;;;;;;13.40;9.30;;;;;;;21.92;81.25;94268.11;1659943;84;21005;-58
2022/07/06 06:33:13;;;;;;;18.30;12.47;;;;;;;21.99;81.15;94261.91;1657545;84;21077;-58
2022/07/06 06:35:49;;;;;;;16.93;12.13;;;;;;;22.09;82.91;94260.98;1650848;84;21845;-57
2022/07/06 06:38:18;;;;;;;11.65;9.38;;;;;;;22.17;83.55;94271.03;1654479;83;21202;-62
2022/07/06 06:40:46;;;;;;;19.92;10.28;;;;;;;22.22;82.14;94275.78;1659931;84;21628;-58
2022/07/06 06:43:13;;;;;;;12.47;9.95;;;;;;;22.26;82.31;94281.09;1639382;85;21078;-62
2022/07/06 06:45:46;;;;;;;13.30;8.78;;;;;;;22.22;82.80;94279.98;1655285;83;21129;-56
2022/07/06 06:48:20;;;;;;;9.23;7.40;;;;;;;22.21;81.82;94285.48;1623149;86;21327;-56
2022/07/06 06:50:48;;;;;;;10.55;6.90;;;;;;;22.21;79.30;94287.52;1662221;83;21019;-54
2022/07/06 06:53:16;;;;;;;9.15;6.65;;;;;;;22.25;76.50;94297.13;1644528;85;21336;-55
2022/07/06 06:55:44;;;;;;;9.38;5.65;;;;;;;22.35;76.87;94302.47;1640755;84;21793;-56
2022/07/06 06:58:13;;;;;;;8.33;5.70;;;;;;;22.43;76.24;94301.97;1633381;85;21101;-55
2022/07/06 07:00:43;;;;;;;6.92;5.90;;;;;;;22.53;75.41;94299.52;1652091;84;21214;-59
2022/07/06 07:03:12;;;;;;;7.25;4.47;;;;;;;22.62;75.10;94303.33;1662938;84;21465;-59
2022/07/06 07:05:58;;;;;;;9.03;4.72;;;;;;;22.65;73.58;94302.98;1670433;83;21562;-58
2022/07/06 07:08:35;;;;;;;6.40;4.50;;;;;;;22.67;73.53;94301.80;1650580;85;21042;-59
2022/07/06 07:11:06;;;;;;;7.60;4.55;;;;;;;22.68;73.18;94307.52;1641013;83;20990;-57
2022/07/06 07:13:36;;;;;;;9.15;4.95;;;;;;;22.65;72.50;94306.45;1664130;83;21146;-56
2022/07/06 07:16:05;;;;;;;12.28;5.30;;;;;;;22.63;73.12;94303.44;1647536;84;21529;-61
2022/07/06 07:18:33;;;;;;;5.45;4.22;;;;;;;22.66;71.39;94309.38;1656755;84;21446;-57
2022/07/06 07:21:01;;;;;;;6.03;3.25;;;;;;;22.62;69.47;94315.28;1644551;84;20979;-60
2022/07/06 07:23:29;;;;;;;5.10;3.67;;;;;;;22.57;68.69;94309.13;1639159;84;22092;-57
2022/07/06 07:25:57;;;;;;;6.65;3.10;;;;;;;22.53;69.19;94314.94;1654038;83;21216;-54
2022/07/06 07:28:25;;;;;;;4.95;3.10;;;;;;;22.51;68.43;94314.06;1653341;84;21545;-56
2022/07/06 07:30:52;;;;;;;8.13;3.30;;;;;;;22.49;68.53;94322.91;1632570;84;21068;-57
2022/07/06 07:33:21;;;;;;;4.53;3.60;;;;;;;22.50;68.56;94321.62;1662953;83;21127;-55
2022/07/06 07:35:48;;;;;;;4.75;3.47;;;;;;;22.54;68.84;94326.27;1648707;84;21064;-58
2022/07/06 07:38:16;;;;;;;4.85;3.87;;;;;;;22.56;68.34;94324.45;1628633;83;21854;-56
2022/07/06 07:40:45;;;;;;;3.67;3.37;;;;;;;22.59;67.97;94328.20;1658830;83;21185;-56
2022/07/06 07:43:14;;;;;;;4.05;3.05;;;;;;;22.59;68.14;94329.61;1690661;83;21082;-56
2022/07/06 07:45:42;;;;;;;5.37;2.80;;;;;;;22.58;68.44;94328.88;1640630;85;21580;-57
2022/07/06 07:48:11;;;;;;;4.60;3.05;;;;;;;22.58;67.62;94332.31;1670549;83;37322;-56
2022/07/06 07:50:40;;;;;;;2.83;2.55;;;;;;;22.54;68.10;94327.03;1647960;85;22112;-56
2022/07/06 07:53:08;;;;;;;4.25;2.85;;;;;;;22.51;68.25;94326.67;1673691;85;21058;-54
2022/07/06 07:55:37;;;;;;;6.42;2.60;;;;;;;22.48;69.05;94324.94;1650835;83;21205;-55
2022/07/06 07:58:05;;;;;;;3.22;2.92;;;;;;;22.48;68.78;94327.01;1648443;83;21054;-56
2022/07/06 08:00:34;;;;;;;6.92;3.05;;;;;;;22.45;68.70;94327.42;1624902;85;21162;-59
2022/07/06 08:03:04;;;;;;;5.92;3.17;;;;;;;22.37;69.15;94325.11;1667676;84;21631;-59
2022/07/06 08:05:33;;;;;;;3.90;3.27;;;;;;;22.35;69.37;94324.89;1668676;84;20957;-58
2022/07/06 08:08:02;;;;;;;8.00;3.40;;;;;;;22.30;69.98;94324.31;1646964;83;21090;-56
2022/07/06 08:10:31;;;;;;;4.90;2.90;;;;;;;22.28;69.87;94334.56;1642595;85;21079;-56
2022/07/06 08:13:00;;;;;;;3.52;2.70;;;;;;;22.24;70.13;94334.09;1647473;83;21589;-56
2022/07/06 08:15:31;;;;;;;4.33;2.87;;;;;;;22.20;69.82;94330.22;1662724;83;21256;-60
2022/07/06 08:17:59;;;;;;;5.75;2.80;;;;;;;22.19;70.13;94325.13;1643327;84;21089;-55
2022/07/06 08:20:27;;;;;;;4.70;3.12;;;;;;;22.19;70.45;94318.13;1664344;83;21246;-55
2022/07/06 08:22:55;;;;;;;19.00;4.40;;;;;;;22.25;71.07;94318.81;1689944;83;21538;-55
2022/07/06 08:25:27;;;;;;;36.10;25.48;;;;;;;22.29;71.49;94320.00;1666300;83;21798;-57
2022/07/06 08:28:04;;;;;;;5.47;4.62;;;;;;;22.35;71.68;94326.30;1653898;84;22633;-58
2022/07/06 08:30:31;;;;;;;10.90;3.83;;;;;;;22.42;72.42;94320.08;1647988;84;21138;-54
2022/07/06 08:32:58;;;;;;;9.15;4.28;;;;;;;22.46;71.65;94326.12;1653395;85;21569;-59
2022/07/06 08:35:26;;;;;;;3.02;2.40;;;;;;;22.46;70.78;94340.14;1647780;85;21399;-56
2022/07/06 08:37:54;;;;;;;2.37;2.17;;;;;;;22.45;69.86;94344.24;1651438;84;21038;-57
2022/07/06 08:40:23;;;;;;;4.90;3.00;;;;;;;22.47;70.77;94349.33;1642978;84;21284;-56
2022/07/06 08:42:54;;;;;;;2.95;2.27;;;;;;;22.46;70.76;94347.81;1656074;83;20969;-54
2022/07/06 08:45:22;;;;;;;4.33;2.60;;;;;;;22.48;71.52;94359.25;1650017;85;21129;-57
2022/07/06 08:47:50;;;;;;;6.50;2.77;;;;;;;22.48;71.73;94359.25;1652215;84;21168;-56
2022/07/06 08:50:20;;;;;;;2.35;2.17;;;;;;;22.49;72.59;94365.71;1640368;85;21526;-57
2022/07/06 08:52:51;;;;;;;3.35;2.65;;;;;;;22.45;72.36;94370.88;1607279;85;22118;-60
2022/07/06 08:55:19;;;;;;;4.35;2.80;;;;;;;22.44;72.99;94370.77;1635182;85;20999;-57
2022/07/06 08:57:47;;;;;;;2.08;1.87;;;;;;;22.45;74.06;94370.88;1641152;84;21027;-59
2022/07/06 09:00:18;;;;;;;2.65;2.42;;;;;;;22.47;75.20;94380.91;1670163;84;21089;-58
2022/07/06 09:02:46;;;;;;;3.37;1.92;;;;;;;22.44;75.64;94384.05;1654957;84;21066;-59
2022/07/06 09:05:15;;;;;;;2.47;2.25;;;;;;;22.37;75.40;94386.78;1663271;83;21135;-58
2022/07/06 09:07:43;;;;;;;2.08;1.87;;;;;;;22.24;73.14;94385.31;1660044;84;21510;-55
2022/07/06 09:10:11;;;;;;;2.60;2.40;;;;;;;22.14;73.03;94386.23;1678984;83;21127;-60
2022/07/06 09:12:38;;;;;;;4.53;2.60;;;;;;;22.06;73.20;94394.48;1653443;84;22020;-59
2022/07/06 09:15:08;;;;;;;3.22;2.77;;;;;;;21.98;74.29;94401.22;1650301;84;21225;-58
2022/07/06 09:17:41;;;;;;;7.15;4.25;;;;;;;21.92;76.06;94406.14;1679767;83;21118;-59
2022/07/06 09:20:10;;;;;;;7.97;3.98;;;;;;;21.86;77.06;94405.44;1622495;84;21013;-59
2022/07/06 09:22:38;;;;;;;3.77;2.72;;;;;;;21.79;77.92;94399.67;1649690;85;21045;-58
2022/07/06 09:25:13;;;;;;;3.20;2.85;;;;;;;21.74;79.96;94399.11;1632676;85;21078;-59
2022/07/06 09:27:54;;;;;;;4.30;3.08;;;;;;;21.74;80.36;94402.67;1674632;84;21050;-59
2022/07/06 09:30:16;;;;;;;4.83;2.67;;;;;;;21.73;80.49;94410.19;1642963;85;21278;-57
2022/07/06 09:32:48;;;;;;;50.20;19.17;;;;;;;21.67;79.92;94408.85;1653323;83;21541;-64
2022/07/06 09:35:31;;;;;;;43.02;17.73;;;;;;;21.71;81.27;94411.37;1657698;85;21065;-57
2022/07/06 09:38:13;;;;;;;31.87;12.93;;;;;;;21.68;80.64;94413.83;1680712;83;21140;-59
2022/07/06 09:40:50;;;;;;;11.60;5.10;;;;;;;21.62;80.49;94406.11;1660338;83;21094;-62
2022/07/06 09:43:22;;;;;;;6.85;2.90;;;;;;;21.58;80.73;94400.02;1646366;83;21037;-58
2022/07/06 09:45:52;;;;;;;4.35;2.92;;;;;;;21.57;80.40;94404.88;1624939;85;21125;-57
2022/07/06 09:48:25;;;;;;;4.25;2.90;;;;;;;21.58;81.17;94394.42;1657482;84;21484;-56
2022/07/06 09:50:56;;;;;;;5.35;3.37;;;;;;;21.54;81.35;94389.14;1654786;85;21180;-58
2022/07/06 09:53:26;;;;;;;19.50;9.98;;;;;;;21.46;82.37;94391.66;1645039;84;21124;-55
2022/07/06 09:55:56;;;;;;;8.03;4.58;;;;;;;21.45;83.60;94404.14;1646127;85;21148;-58
2022/07/06 09:58:23;;;;;;;3.72;2.60;;;;;;;21.39;83.99;94413.22;1659580;84;21073;-62
2022/07/06 10:00:52;;;;;;;4.87;2.70;;;;;;;21.36;84.93;94412.88;1656275;84;21667;-58
2022/07/06 10:03:21;;;;;;;4.28;2.67;;;;;;;21.36;84.81;94415.05;1662876;85;21074;-56
2022/07/06 10:05:49;;;;;;;6.92;4.37;;;;;;;21.37;84.93;94417.19;1654049;84;21135;-58
2022/07/06 10:08:18;;;;;;;23.92;11.63;;;;;;;21.35;85.21;94411.36;1655168;84;21865;-58
2022/07/06 10:10:49;;;;;;;5.87;3.92;;;;;;;21.37;83.83;94420.75;1643905;85;21049;-57
2022/07/06 10:13:20;;;;;;;10.13;5.00;;;;;;;21.36;82.92;94428.27;1643669;83;21035;-56
2022/07/06 10:15:47;;;;;;;3.90;2.92;;;;;;;21.37;83.12;94422.78;1646997;83;21096;-57
2022/07/06 10:18:16;;;;;;;2.10;2.00;;;;;;;21.36;82.83;94426.87;1647241;84;21021;-58
2022/07/06 10:20:44;;;;;;;2.58;2.37;;;;;;;21.36;82.46;94424.07;1655202;85;21442;-56
2022/07/06 10:23:13;;;;;;;3.67;2.40;;;;;;;21.40;82.07;94425.92;1651800;85;20974;-56
2022/07/06 10:25:41;;;;;;;3.40;3.02;;;;;;;21.41;82.43;94426.81;1654909;84;21191;-56
2022/07/06 10:28:14;;;;;;;3.75;3.00;;;;;;;21.42;83.07;94421.96;1649683;85;21096;-56
2022/07/06 10:30:40;;;;;;;11.08;3.10;;;;;;;21.44;83.93;94414.56;1648074;85;21076;-56
2022/07/06 10:33:08;;;;;;;4.40;3.15;;;;;;;21.48;84.00;94418.48;1647023;84;21284;-57
2022/07/06 10:35:37;;;;;;;3.72;2.85;;;;;;;21.45;84.27;94418.88;1647951;86;21091;-56
2022/07/06 10:38:08;;;;;;;3.50;2.60;;;;;;;21.35;84.32;94422.55;1648634;84;21586;-56
2022/07/06 10:41:13;;;;;;;2.80;2.60;;;;;;;21.24;84.60;94424.83;1648659;84;21545;-56
2022/07/06 10:43:15;;;;;;;2.90;2.70;;;;;;;21.20;84.96;94424.98;1663170;85;21069;-56
2022/07/06 10:45:50;;;;;;;2.67;2.47;;;;;;;21.16;85.05;94435.09;1670284;84;21311;-56
2022/07/06 10:48:20;;;;;;;2.70;2.40;;;;;;;21.15;84.57;94435.60;1672428;84;21054;-60
2022/07/06 10:50:54;;;;;;;10.35;6.47;;;;;;;21.11;84.74;94440.73;1645885;85;21570;-55
2022/07/06 10:53:25;;;;;;;5.60;4.50;;;;;;;21.09;85.29;94453.83;1640230;86;21000;-56
2022/07/06 10:55:55;;;;;;;4.55;4.15;;;;;;;21.14;85.14;94452.27;1648094;84;21588;-58
2022/07/06 10:58:47;;;;;;;4.53;3.30;;;;;;;21.18;84.01;94444.34;1648073;84;21144;-57
2022/07/06 11:01:14;;;;;;;3.00;2.80;;;;;;;21.18;84.09;94455.53;1629613;86;20985;-57
2022/07/06 11:03:50;;;;;;;5.15;3.33;;;;;;;21.18;84.34;94452.73;1694679;83;21589;-57
2022/07/06 11:06:27;;;;;;;4.22;3.83;;;;;;;21.19;84.30;94457.83;1656779;83;21526;-56
2022/07/06 11:08:59;;;;;;;4.40;3.87;;;;;;;21.18;84.41;94453.52;1664602;83;21693;-57
2022/07/06 11:11:38;;;;;;;3.30;3.08;;;;;;;21.16;84.72;94446.91;1660171;84;21232;-55
2022/07/06 11:14:21;;;;;;;4.40;4.00;;;;;;;21.14;85.76;94446.68;1657221;84;21482;-56
2022/07/06 11:16:57;;;;;;;3.45;3.12;;;;;;;21.12;86.34;94448.59;1670495;85;21104;-56
2022/07/06 11:19:25;;;;;;;3.17;2.95;;;;;;;21.18;86.33;94445.74;1665373;83;21127;-58
2022/07/06 11:22:00;;;;;;;2.65;2.45;;;;;;;21.21;86.28;94447.48;1661490;83;21042;-56
2022/07/06 11:24:30;;;;;;;4.65;3.45;;;;;;;21.21;86.48;94455.89;1649721;84;21200;-56
2022/07/06 11:26:59;;;;;;;3.58;3.27;;;;;;;21.22;86.88;94460.20;1657810;85;21038;-57
2022/07/06 11:29:28;;;;;;;3.00;2.70;;;;;;;21.20;86.72;94454.38;1611811;85;21111;-51
2022/07/06 11:32:04;;;;;;;2.47;2.27;;;;;;;21.20;86.37;94454.38;1624962;85;21380;-57
2022/07/06 11:34:38;;;;;;;4.42;3.17;;;;;;;21.18;85.20;94457.71;1643186;85;21237;-58
2022/07/06 11:37:10;;;;;;;3.30;2.92;;;;;;;21.09;85.32;94453.83;1618198;85;21236;-59